Time;durP1;ratioP1;P1;durP2;ratioP2;P2;SDS_P1;SDS_P2;PMS_P1;PMS_P2;Temp;Humidity;BMP_temperature;BMP_pressure;BME280_temperature;BME280_humidity;BME280_pressure;Samples;Min_cycle;Max_cycle;Signal;HPM_P1;HPM_P2
2023/08/05 00:00:13;;;;;;;1999.90;999.90;;;15.80;99.90;;;;;;5035290;28;20044;-70
2023/08/05 00:02:39;;;;;;;1999.90;999.90;;;15.80;99.90;;;;;;5035097;28;20036;-70
2023/08/05 00:05:06;;;;;;;1999.90;999.90;;;15.80;99.90;;;;;;5017981;28;20014;-77
2023/08/05 00:07:32;;;;;;;1999.90;999.90;;;15.80;99.90;;;;;;5035697;28;20476;-69
2023/08/05 00:09:57;;;;;;;1999.90;999.90;;;15.80;99.90;;;;;;5035222;28;20024;-70
2023/08/05 00:12:23;;;;;;;1999.90;999.90;;;15.80;99.90;;;;;;5035063;28;20040;-69
2023/08/05 00:14:48;;;;;;;1999.90;999.90;;;15.80;99.90;;;;;;5034914;28;20476;-69
2023/08/05 00:17:14;;;;;;;1999.90;999.90;;;15.90;99.90;;;;;;5017038;28;20117;-70
2023/08/05 00:19:41;;;;;;;1999.90;999.90;;;15.80;99.90;;;;;;5034805;28;20056;-77
2023/08/05 00:22:07;;;;;;;1999.90;999.90;;;15.80;99.90;;;;;;5016351;28;20052;-69
2023/08/05 00:24:32;;;;;;;1999.90;999.90;;;15.90;99.90;;;;;;5034446;28;20018;-69
2023/08/05 00:26:58;;;;;;;1999.90;999.90;;;15.90;99.90;;;;;;5035105;28;20096;-69
2023/08/05 00:29:24;;;;;;;1999.90;999.90;;;15.90;99.90;;;;;;5034439;28;20024;-78
2023/08/05 00:31:50;;;;;;;1999.90;999.90;;;15.90;99.90;;;;;;5034521;28;20037;-77
2023/08/05 00:34:15;;;;;;;1999.90;999.90;;;15.90;99.90;;;;;;5034502;28;20400;-70
2023/08/05 00:36:41;;;;;;;1999.90;999.90;;;15.90;99.90;;;;;;5034605;28;20026;-69
2023/08/05 00:39:06;;;;;;;1999.90;999.90;;;15.90;99.90;;;;;;5034944;28;20029;-69
2023/08/05 00:41:32;;;;;;;1999.90;999.90;;;15.90;99.90;;;;;;5034650;28;20037;-69
2023/08/05 00:43:58;;;;;;;1999.90;999.90;;;16.00;99.90;;;;;;5034213;28;20113;-69
2023/08/05 00:46:23;;;;;;;1999.90;999.90;;;16.00;99.90;;;;;;5016456;28;20120;-70
2023/08/05 00:48:53;;;;;;;1999.90;999.90;;;16.00;99.90;;;;;;5016675;28;20447;-69
2023/08/05 00:51:20;;;;;;;1999.90;999.90;;;16.00;99.90;;;;;;5034452;28;20022;-70
2023/08/05 00:53:47;;;;;;;1999.90;999.90;;;16.00;99.90;;;;;;5034454;28;20022;-69
2023/08/05 00:56:15;;;;;;;1999.90;999.90;;;16.00;99.90;;;;;;5034431;28;20385;-77
2023/08/05 00:58:42;;;;;;;1999.90;999.90;;;16.00;99.90;;;;;;5033382;28;20104;-70
2023/08/05 01:01:08;;;;;;;1999.90;999.90;;;16.00;99.90;;;;;;5016084;28;20029;-69
2023/08/05 01:03:34;;;;;;;1999.90;999.90;;;15.90;99.90;;;;;;5033790;28;20396;-69
2023/08/05 01:06:00;;;;;;;1999.90;999.90;;;15.90;99.90;;;;;;5033948;28;20033;-69
2023/08/05 01:08:26;;;;;;;1999.90;999.90;;;15.90;99.90;;;;;;5016113;28;20032;-77
2023/08/05 01:10:52;;;;;;;1999.90;999.90;;;15.80;99.90;;;;;;5034077;28;20049;-77
2023/08/05 01:13:18;;;;;;;1999.90;999.90;;;15.70;99.90;;;;;;5033710;28;20382;-69
2023/08/05 01:15:44;;;;;;;1999.90;999.90;;;15.80;99.90;;;;;;5016112;28;20040;-70
2023/08/05 01:18:10;;;;;;;1999.90;999.90;;;15.80;99.90;;;;;;5033910;28;20018;-70
2023/08/05 01:20:45;;;;;;;1999.90;999.90;;;15.70;99.90;;;;;;5033516;28;20037;-70
2023/08/05 01:23:22;;;;;;;1999.90;999.90;;;15.80;99.90;;;;;;5033582;28;20017;-70
2023/08/05 01:25:47;;;;;;;1999.90;999.90;;;15.70;99.90;;;;;;5033577;28;20026;-70
2023/08/05 01:28:15;;;;;;;1999.90;999.90;;;15.70;99.90;;;;;;5033477;28;20476;-70
2023/08/05 01:30:43;;;;;;;1999.90;999.90;;;15.60;99.90;;;;;;5033487;28;20017;-70
2023/08/05 01:33:10;;;;;;;1999.90;999.90;;;15.70;99.90;;;;;;5033468;28;20029;-70
2023/08/05 01:35:35;;;;;;;1999.90;999.90;;;15.70;99.90;;;;;;5014869;28;20053;-77
2023/08/05 01:38:01;;;;;;;1999.90;999.90;;;15.70;99.90;;;;;;5033398;28;20064;-70
2023/08/05 01:40:28;;;;;;;1999.90;999.90;;;15.70;99.90;;;;;;5015539;28;20041;-70
2023/08/05 01:42:58;;;;;;;1999.90;999.90;;;15.60;99.90;;;;;;5033036;28;20124;-70
2023/08/05 01:45:24;;;;;;;1999.90;999.90;;;15.60;99.90;;;;;;5015491;28;20026;-69
2023/08/05 01:47:50;;;;;;;1999.90;999.90;;;15.60;99.90;;;;;;5032887;28;20021;-69
2023/08/05 01:50:16;;;;;;;1999.90;999.90;;;15.60;99.90;;;;;;5015553;28;20095;-69
2023/08/05 01:52:42;;;;;;;1999.90;999.90;;;15.60;99.90;;;;;;5033141;28;20033;-70
2023/08/05 01:55:08;;;;;;;1999.90;999.90;;;15.60;99.90;;;;;;5033231;28;20033;-69
2023/08/05 01:57:33;;;;;;;1999.90;999.90;;;15.60;99.90;;;;;;5033089;28;20028;-70
2023/08/05 01:59:59;;;;;;;1999.90;999.90;;;15.70;99.90;;;;;;5033103;28;20462;-77
2023/08/05 02:02:24;;;;;;;1999.90;999.90;;;15.60;99.90;;;;;;5032959;28;20100;-70
2023/08/05 02:04:50;;;;;;;1999.90;999.90;;;15.60;99.90;;;;;;5033144;28;20472;-78
2023/08/05 02:07:15;;;;;;;1999.90;999.90;;;15.60;99.90;;;;;;5032975;28;20025;-69
2023/08/05 02:09:41;;;;;;;1999.90;999.90;;;15.60;99.90;;;;;;5015164;28;20018;-69
2023/08/05 02:12:07;;;;;;;1999.90;999.90;;;15.60;99.90;;;;;;5032952;28;20132;-70
2023/08/05 02:14:32;;;;;;;1999.90;999.90;;;15.50;99.90;;;;;;5032874;28;20033;-70
2023/08/05 02:16:58;;;;;;;1999.90;999.90;;;15.60;99.90;;;;;;5033342;28;20052;-69
2023/08/05 02:19:24;;;;;;;1999.90;999.90;;;15.50;99.90;;;;;;5032774;28;20033;-70
2023/08/05 02:21:49;;;;;;;1999.90;999.90;;;15.50;99.90;;;;;;5032692;28;20029;-70
2023/08/05 02:24:15;;;;;;;1999.90;999.90;;;15.50;99.90;;;;;;5032962;28;20491;-69
2023/08/05 02:26:41;;;;;;;1999.90;999.90;;;15.50;99.90;;;;;;5032933;28;20095;-78
2023/08/05 02:29:07;;;;;;;1999.90;999.90;;;15.50;99.90;;;;;;5032913;28;20111;-70
2023/08/05 02:31:33;;;;;;;1999.90;999.90;;;15.50;99.90;;;;;;5033002;28;20092;-70
2023/08/05 02:33:58;;;;;;;1999.90;999.90;;;15.50;99.90;;;;;;5032660;28;20033;-69
2023/08/05 02:36:24;;;;;;;1999.90;999.90;;;15.40;99.90;;;;;;5032602;28;20060;-70
2023/08/05 02:38:50;;;;;;;1999.90;999.90;;;15.40;99.90;;;;;;5015069;28;20037;-69
2023/08/05 02:41:15;;;;;;;1999.90;999.90;;;15.40;99.90;;;;;;5032839;28;20029;-69
2023/08/05 02:43:41;;;;;;;1999.90;999.90;;;15.30;99.90;;;;;;5032600;28;20497;-70
2023/08/05 02:46:07;;;;;;;1999.90;999.90;;;15.30;99.90;;;;;;5032852;28;20036;-70
2023/08/05 02:48:33;;;;;;;1999.90;999.90;;;15.30;99.90;;;;;;5036184;28;20443;-70
2023/08/05 02:50:58;;;;;;;1999.90;999.90;;;15.20;99.90;;;;;;5036685;28;20021;-70
2023/08/05 02:53:24;;;;;;;1999.90;999.90;;;15.20;99.90;;;;;;5036775;28;20104;-78
2023/08/05 02:55:50;;;;;;;1999.90;999.90;;;15.30;99.90;;;;;;5036838;28;20027;-78
2023/08/05 02:58:17;;;;;;;1999.90;999.90;;;15.20;99.90;;;;;;5036608;28;20408;-70
2023/08/05 03:00:43;;;;;;;1999.90;999.90;;;15.30;99.90;;;;;;5036630;28;20073;-70
2023/08/05 03:03:10;;;;;;;1999.90;999.90;;;15.30;99.90;;;;;;5018344;28;20033;-70
2023/08/05 03:05:36;;;;;;;1999.90;999.90;;;15.30;99.90;;;;;;5036319;28;20056;-69
2023/08/05 03:08:02;;;;;;;1999.90;999.90;;;15.30;99.90;;;;;;5036628;28;20053;-77
2023/08/05 03:10:27;;;;;;;1999.90;999.90;;;15.30;99.90;;;;;;5018222;28;20018;-69
2023/08/05 03:12:53;;;;;;;1999.90;999.90;;;15.20;99.90;;;;;;5036101;28;20113;-70
2023/08/05 03:15:18;;;;;;;1999.90;999.90;;;15.20;99.90;;;;;;5035961;28;20029;-69
2023/08/05 03:17:44;;;;;;;1999.90;999.90;;;15.20;99.90;;;;;;5036243;28;20033;-70
2023/08/05 03:20:31;;;;;;;1999.90;999.90;;;15.20;99.90;;;;;;5035760;28;20118;-77
2023/08/05 03:22:57;;;;;;;1999.90;999.90;;;15.20;99.90;;;;;;5035888;28;20029;-69
2023/08/05 03:25:25;;;;;;;1999.90;999.90;;;15.30;99.90;;;;;;5018061;28;20021;-70
2023/08/05 03:27:51;;;;;;;1999.90;999.90;;;15.30;99.90;;;;;;5035791;28;20026;-70
2023/08/05 03:30:18;;;;;;;1999.90;999.90;;;15.30;99.90;;;;;;5017998;28;20025;-69
2023/08/05 03:32:46;;;;;;;1999.90;999.90;;;15.40;99.90;;;;;;5035370;28;20104;-70
2023/08/05 03:35:11;;;;;;;1999.90;999.90;;;15.40;99.90;;;;;;5035015;28;20509;-70
2023/08/05 03:37:37;;;;;;;1999.90;999.90;;;15.40;99.90;;;;;;5017981;28;20069;-70
2023/08/05 03:40:03;;;;;;;1999.90;999.90;;;15.40;99.90;;;;;;5035590;28;20033;-69
2023/08/05 03:42:28;;;;;;;1999.90;999.90;;;15.40;99.90;;;;;;5034795;28;20025;-70
2023/08/05 03:44:54;;;;;;;1999.90;999.90;;;15.50;99.90;;;;;;5035514;28;20025;-70
2023/08/05 03:47:20;;;;;;;1999.90;999.90;;;15.60;99.90;;;;;;5035568;28;20025;-70
2023/08/05 03:49:46;;;;;;;1999.90;999.90;;;15.60;99.90;;;;;;5035611;28;20021;-70
2023/08/05 03:52:12;;;;;;;1999.90;999.90;;;15.70;99.90;;;;;;5017653;28;20116;-70
2023/08/05 03:54:38;;;;;;;1999.90;999.90;;;15.70;99.90;;;;;;5017666;28;20045;-70
2023/08/05 03:57:08;;;;;;;1999.90;999.90;;;15.70;99.90;;;;;;5035419;28;20392;-77
2023/08/05 03:59:36;;;;;;;1999.90;999.90;;;15.70;99.90;;;;;;5016581;28;20022;-77
2023/08/05 04:02:03;;;;;;;1999.90;999.90;;;15.70;99.90;;;;;;5017225;28;20033;-70
2023/08/05 04:04:28;;;;;;;1999.90;999.90;;;15.70;99.90;;;;;;5035150;28;20021;-70
2023/08/05 04:06:54;;;;;;;1999.90;999.90;;;15.70;99.90;;;;;;5017458;28;20457;-70
2023/08/05 04:09:20;;;;;;;1999.90;999.90;;;15.70;99.90;;;;;;5035117;28;20084;-70
2023/08/05 04:11:48;;;;;;;1999.90;999.90;;;15.70;99.90;;;;;;5034855;28;20108;-77
2023/08/05 04:14:16;;;;;;;1999.90;999.90;;;15.80;99.90;;;;;;5035005;28;20109;-70
2023/08/05 04:16:42;;;;;;;1999.90;999.90;;;15.90;99.90;;;;;;5034974;28;20029;-70
2023/08/05 04:19:08;;;;;;;1999.90;999.90;;;15.90;99.90;;;;;;5034940;28;20392;-70
2023/08/05 04:21:40;;;;;;;1999.90;999.90;;;15.90;99.90;;;;;;5034692;28;20030;-70
2023/08/05 04:24:09;;;;;;;1999.90;999.90;;;16.00;99.90;;;;;;5015085;28;20010;-77
2023/08/05 04:26:35;;;;;;;1999.90;999.90;;;16.00;99.90;;;;;;5014886;28;20438;-70
2023/08/05 04:29:02;;;;;;;1999.90;999.90;;;16.00;99.90;;;;;;4997327;28;20037;-70
2023/08/05 04:31:28;;;;;;;1999.90;999.90;;;16.00;99.90;;;;;;5014833;28;20022;-70
2023/08/05 04:33:54;;;;;;;1999.90;999.90;;;16.10;99.90;;;;;;4997129;28;20030;-70
2023/08/05 04:36:19;;;;;;;1999.90;999.90;;;16.10;99.90;;;;;;5032357;28;20030;-77
2023/08/05 04:38:45;;;;;;;1999.90;999.90;;;16.10;99.90;;;;;;5034352;28;20025;-78
2023/08/05 04:41:10;;;;;;;1999.90;999.90;;;16.10;99.90;;;;;;5016673;28;20080;-70
2023/08/05 04:43:36;;;;;;;1999.90;999.90;;;16.10;99.90;;;;;;5016436;28;20053;-70
2023/08/05 04:46:01;;;;;;;1999.90;999.90;;;16.10;99.90;;;;;;5034294;28;20472;-69
2023/08/05 04:48:27;;;;;;;1999.90;999.90;;;16.10;99.90;;;;;;5034374;28;20109;-69
2023/08/05 04:50:55;;;;;;;1999.90;999.90;;;16.20;99.90;;;;;;5034131;28;20021;-69
2023/08/05 04:53:20;;;;;;;1999.90;999.90;;;16.10;99.90;;;;;;5034317;28;20117;-70
2023/08/05 04:55:46;;;;;;;1999.90;999.90;;;16.20;99.90;;;;;;5016450;28;20109;-69
2023/08/05 04:58:11;;;;;;;1999.90;999.90;;;16.20;99.90;;;;;;5034301;28;20033;-69
2023/08/05 05:00:38;;;;;;;1999.90;999.90;;;16.20;99.90;;;;;;5034031;28;20031;-69
2023/08/05 05:03:06;;;;;;;1999.90;999.90;;;16.20;99.90;;;;;;5016024;28;20025;-78
2023/08/05 05:05:33;;;;;;;1999.90;999.90;;;16.20;99.90;;;;;;5034243;28;20028;-70
2023/08/05 05:07:59;;;;;;;1999.90;999.90;;;16.20;99.90;;;;;;5034020;28;20099;-70
2023/08/05 05:10:25;;;;;;;1999.90;999.90;;;16.20;99.90;;;;;;5032840;28;20032;-69
2023/08/05 05:12:51;;;;;;;1999.90;999.90;;;16.30;99.90;;;;;;5016148;28;20034;-70
2023/08/05 05:15:19;;;;;;;1999.90;999.90;;;16.30;99.90;;;;;;5033644;28;20029;-78
2023/08/05 05:17:45;;;;;;;1999.90;999.90;;;16.30;99.90;;;;;;5033380;28;20026;-70
2023/08/05 05:20:11;;;;;;;1999.90;999.90;;;16.30;99.90;;;;;;5033679;28;20049;-70
2023/08/05 05:22:37;;;;;;;1999.90;999.90;;;16.30;99.90;;;;;;5033594;28;20079;-70
2023/08/05 05:25:03;;;;;;;1999.90;999.90;;;16.40;99.90;;;;;;5034024;28;20022;-70
2023/08/05 05:27:28;;;;;;;1999.90;999.90;;;16.40;99.90;;;;;;5033481;28;20025;-70
2023/08/05 05:29:54;;;;;;;1999.90;999.90;;;16.40;99.90;;;;;;5033722;28;20021;-70
2023/08/05 05:32:20;;;;;;;1999.90;999.90;;;16.50;99.90;;;;;;5015897;28;20061;-70
2023/08/05 05:34:45;;;;;;;1999.90;999.90;;;16.50;99.90;;;;;;5033197;28;20029;-70
2023/08/05 05:37:11;;;;;;;1999.90;999.90;;;16.40;99.90;;;;;;5015594;28;20025;-70
2023/08/05 05:39:37;;;;;;;1999.90;999.90;;;16.50;99.90;;;;;;5015715;28;20108;-70
2023/08/05 05:42:03;;;;;;;1999.90;999.90;;;16.50;99.90;;;;;;5033565;28;20412;-70
2023/08/05 05:44:28;;;;;;;1999.90;999.90;;;16.60;99.90;;;;;;5033151;28;20528;-77
2023/08/05 05:46:54;;;;;;;1999.90;999.90;;;16.60;99.90;;;;;;5015409;28;20117;-70
2023/08/05 05:49:20;;;;;;;1999.90;999.90;;;16.70;99.90;;;;;;5033486;28;20025;-70
2023/08/05 05:51:46;;;;;;;1999.90;999.90;;;16.70;99.90;;;;;;5033041;28;20400;-70
2023/08/05 05:54:12;;;;;;;1999.90;999.90;;;16.70;99.90;;;;;;5015485;28;20026;-77
2023/08/05 05:56:38;;;;;;;1999.90;999.90;;;16.80;99.90;;;;;;5015372;28;20040;-76
2023/08/05 05:59:04;;;;;;;1999.90;999.90;;;16.80;99.90;;;;;;5033065;28;20029;-70
2023/08/05 06:01:29;;;;;;;1999.90;999.90;;;16.90;99.90;;;;;;5032723;28;20059;-70
2023/08/05 06:03:55;;;;;;;1999.90;999.90;;;16.90;99.90;;;;;;5033010;28;20640;-70
2023/08/05 06:06:20;;;;;;;1999.90;999.90;;;17.00;99.90;;;;;;5033410;28;20025;-70
2023/08/05 06:08:46;;;;;;;1999.90;999.90;;;17.00;99.90;;;;;;5033173;28;20499;-70
2023/08/05 06:11:12;;;;;;;1999.90;999.90;;;17.00;99.90;;;;;;5032778;28;20025;-70
2023/08/05 06:13:37;;;;;;;1999.90;999.90;;;17.10;99.90;;;;;;5014963;28;20072;-70
2023/08/05 06:16:04;;;;;;;1999.90;999.90;;;17.10;99.90;;;;;;5043538;28;20037;-70
2023/08/05 06:18:30;;;;;;;1999.90;999.90;;;17.20;99.90;;;;;;5034920;28;20075;-70
2023/08/05 06:20:55;;;;;;;1999.90;999.90;;;17.30;99.90;;;;;;5034114;28;20025;-77
2023/08/05 06:23:21;;;;;;;1999.90;999.90;;;17.50;99.90;;;;;;5019859;28;20034;-77
2023/08/05 06:25:47;;;;;;;1999.90;999.90;;;17.60;99.90;;;;;;5033053;28;20018;-70
2023/08/05 06:28:12;;;;;;;1999.90;999.90;;;17.80;99.90;;;;;;5032521;28;20036;-70
2023/08/05 06:30:45;;;;;;;1999.90;999.90;;;17.80;99.90;;;;;;5032807;28;20021;-70
2023/08/05 06:33:11;;;;;;;;;;;17.90;99.90;;;;;;5033138;28;20037;-76
2023/08/05 06:35:37;;;;;;;1999.90;999.90;;;17.80;99.90;;;;;;5032491;28;19905;-76
2023/08/05 06:38:03;;;;;;;1999.90;999.90;;;17.90;99.90;;;;;;5032934;28;20373;-70
2023/08/05 06:40:28;;;;;;;1999.90;999.90;;;17.90;99.90;;;;;;5032514;28;20038;-70
2023/08/05 06:42:54;;;;;;;1999.90;999.90;;;17.90;99.90;;;;;;5032296;28;20520;-70
2023/08/05 06:45:20;;;;;;;1999.90;999.90;;;17.90;99.90;;;;;;5032656;28;20494;-70
2023/08/05 06:47:45;;;;;;;1999.90;999.90;;;18.00;99.90;;;;;;5032576;28;20095;-77
2023/08/05 06:50:11;;;;;;;1999.90;999.90;;;18.00;99.90;;;;;;5014791;28;20030;-70
2023/08/05 06:52:36;;;;;;;1999.90;999.90;;;17.80;99.90;;;;;;5032453;28;20029;-70
2023/08/05 06:55:04;;;;;;;1999.90;999.90;;;17.80;99.90;;;;;;5032608;28;20038;-70
2023/08/05 06:57:30;;;;;;;1999.90;999.90;;;17.70;99.90;;;;;;5032616;28;20128;-69
2023/08/05 06:59:56;;;;;;;1999.90;999.90;;;17.70;99.90;;;;;;5032665;28;20048;-78
2023/08/05 07:02:22;;;;;;;1999.90;999.90;;;17.80;99.90;;;;;;5033144;28;20025;-70
2023/08/05 07:04:48;;;;;;;1999.90;999.90;;;17.80;99.90;;;;;;5032724;28;20035;-69
2023/08/05 07:07:13;;;;;;;1999.90;999.90;;;17.90;99.90;;;;;;5014571;28;20022;-70
2023/08/05 07:09:39;;;;;;;1999.90;999.90;;;17.90;99.90;;;;;;5014573;28;20033;-69
2023/08/05 07:12:05;;;;;;;1999.90;999.90;;;17.80;99.90;;;;;;5032541;28;20026;-70
2023/08/05 07:14:32;;;;;;;1999.90;999.90;;;17.80;99.90;;;;;;5032283;28;20524;-70
2023/08/05 07:16:58;;;;;;;1999.90;999.90;;;17.80;99.90;;;;;;5014516;28;20496;-70
2023/08/05 07:19:23;;;;;;;1999.90;999.90;;;17.70;99.90;;;;;;5032084;28;20082;-70
2023/08/05 07:21:50;;;;;;;1999.90;999.90;;;17.70;99.90;;;;;;5032189;28;20033;-70
2023/08/05 07:24:18;;;;;;;1999.90;999.90;;;17.70;99.90;;;;;;5032315;28;20075;-70
2023/08/05 07:26:43;;;;;;;1999.90;999.90;;;17.80;99.90;;;;;;5014545;28;20120;-77
2023/08/05 07:29:09;;;;;;;1999.90;999.90;;;17.80;99.90;;;;;;5032357;28;20136;-69
2023/08/05 07:31:34;;;;;;;1999.90;999.90;;;17.90;99.90;;;;;;5014269;28;20044;-69
2023/08/05 07:34:00;;;;;;;1999.90;999.90;;;18.00;99.90;;;;;;5015339;28;20021;-70
2023/08/05 07:36:27;;;;;;;1999.90;999.90;;;17.80;99.90;;;;;;5035564;28;20439;-70
2023/08/05 07:38:54;;;;;;;1999.90;999.90;;;17.90;99.90;;;;;;5035838;28;20032;-70
2023/08/05 07:41:21;;;;;;;1999.90;999.90;;;17.90;99.90;;;;;;5035685;28;20022;-70
2023/08/05 07:43:47;;;;;;;1999.90;999.90;;;18.00;99.90;;;;;;5035405;28;20045;-69
2023/08/05 07:46:13;;;;;;;1999.90;999.90;;;18.00;99.90;;;;;;5017755;28;20514;-69
2023/08/05 07:48:40;;;;;;;1999.90;999.90;;;17.80;99.90;;;;;;5017897;28;20029;-70
2023/08/05 07:51:06;;;;;;;1999.90;999.90;;;17.70;99.90;;;;;;5035394;28;20101;-68
2023/08/05 07:53:36;;;;;;;1999.90;999.90;;;17.60;99.90;;;;;;5017618;28;20403;-78
2023/08/05 07:56:11;;;;;;;1999.90;999.90;;;17.30;99.90;;;;;;5035466;28;20049;-68
2023/08/05 07:58:44;;;;;;;1999.90;999.90;;;17.10;99.90;;;;;;5035277;28;20056;-68
2023/08/05 08:01:12;;;;;;;1999.90;999.90;;;16.70;99.90;;;;;;5017499;28;20576;-68
2023/08/05 08:03:37;;;;;;;1999.90;999.90;;;16.60;99.90;;;;;;5034986;28;20116;-68
2023/08/05 08:06:03;;;;;;;1999.90;999.90;;;16.60;99.90;;;;;;5035319;28;20128;-68
2023/08/05 08:08:29;;;;;;;1999.90;999.90;;;16.60;99.90;;;;;;5035228;28;20025;-77
2023/08/05 08:10:55;;;;;;;1999.90;999.90;;;16.70;99.90;;;;;;5035142;28;20028;-68
2023/08/05 08:13:20;;;;;;;1999.90;999.90;;;16.60;99.90;;;;;;5035064;28;20041;-69
2023/08/05 08:15:46;;;;;;;1999.90;999.90;;;16.70;99.90;;;;;;5034998;28;20029;-68
2023/08/05 08:18:11;;;;;;;1999.90;999.90;;;16.70;99.90;;;;;;5035219;28;20038;-78
2023/08/05 08:20:37;;;;;;;1999.90;999.90;;;16.80;99.90;;;;;;5016976;28;20540;-78
2023/08/05 08:23:03;;;;;;;1999.90;999.90;;;17.10;99.90;;;;;;5034839;28;20091;-69
2023/08/05 08:25:28;;;;;;;1999.90;999.90;;;17.20;99.90;;;;;;5034752;28;20029;-68
2023/08/05 08:27:54;;;;;;;1999.90;999.90;;;17.20;99.90;;;;;;5034884;28;20109;-68
2023/08/05 08:30:19;;;;;;;1999.90;999.90;;;17.20;99.90;;;;;;5016953;28;20546;-75
2023/08/05 08:32:45;;;;;;;1999.90;999.90;;;17.40;99.90;;;;;;5034492;28;20033;-68
2023/08/05 08:35:11;;;;;;;1999.90;999.90;;;17.50;99.90;;;;;;5034372;28;20544;-68
2023/08/05 08:37:36;;;;;;;1999.90;999.90;;;17.50;99.90;;;;;;5034832;28;20030;-68
2023/08/05 08:40:03;;;;;;;1999.90;999.90;;;17.60;99.90;;;;;;5034581;28;20207;-68
2023/08/05 08:42:28;;;;;;;1999.90;999.90;;;17.40;99.90;;;;;;5016398;28;20029;-68
2023/08/05 08:44:55;;;;;;;1999.90;999.90;;;17.30;99.90;;;;;;5034306;28;20029;-68
2023/08/05 08:47:22;;;;;;;1999.90;999.90;;;17.20;99.90;;;;;;5033695;28;20146;-68
2023/08/05 08:49:51;;;;;;;1999.90;999.90;;;17.20;99.90;;;;;;5034195;28;20500;-68
2023/08/05 08:52:20;;;;;;;1999.90;999.90;;;17.10;99.90;;;;;;5034317;28;20037;-68
2023/08/05 08:54:47;;;;;;;1999.90;999.90;;;17.20;99.90;;;;;;5034304;28;20033;-68
2023/08/05 08:57:13;;;;;;;1999.90;999.90;;;17.30;99.90;;;;;;5034184;28;20116;-68
2023/08/05 08:59:42;;;;;;;1999.90;999.90;;;17.30;99.90;;;;;;5034083;28;20025;-77
2023/08/05 09:02:15;;;;;;;1999.90;999.90;;;17.60;99.90;;;;;;5034159;28;20026;-68
2023/08/05 09:04:42;;;;;;;1999.90;999.90;;;17.80;99.90;;;;;;5034105;28;20076;-68
2023/08/05 09:07:09;;;;;;;1999.90;999.90;;;17.70;99.90;;;;;;5016153;28;20079;-68
2023/08/05 09:09:35;;;;;;;1999.90;999.90;;;17.70;99.90;;;;;;5033668;28;20500;-77
2023/08/05 09:12:02;;;;;;;1999.90;999.90;;;17.80;99.90;;;;;;5033956;28;20034;-77
2023/08/05 09:14:28;;;;;;;1999.90;999.90;;;17.80;99.90;;;;;;5033713;28;20025;-67
2023/08/05 09:17:00;;;;;;;1999.90;999.90;;;17.70;99.90;;;;;;5033775;28;20021;-68
2023/08/05 09:19:27;;;;;;;1999.90;999.90;;;17.80;99.90;;;;;;5033952;28;20080;-68
2023/08/05 09:21:54;;;;;;;1999.90;999.90;;;17.80;99.90;;;;;;5033007;28;20040;-68
2023/08/05 09:24:23;;;;;;;1999.90;999.90;;;17.80;99.90;;;;;;5033737;28;20037;-75
2023/08/05 09:26:57;;;;;;;1999.90;999.90;;;17.80;99.90;;;;;;5033529;28;20033;-68
2023/08/05 09:29:24;;;;;;;1999.90;999.90;;;17.80;99.90;;;;;;5013790;28;20037;-67
2023/08/05 09:32:03;;;;;;;1999.90;999.90;;;17.60;99.90;;;;;;4996183;28;20026;-67
2023/08/05 09:34:39;;;;;;;1999.90;999.90;;;17.70;99.90;;;;;;5016027;28;20026;-68
2023/08/05 09:37:06;;;;;;;1999.90;999.90;;;17.80;99.90;;;;;;5033661;28;20082;-68
2023/08/05 09:39:47;;;;;;;1999.90;999.90;;;17.70;99.90;;;;;;5033049;28;20037;-67
2023/08/05 09:42:27;;;;;;;1999.90;999.90;;;17.60;99.90;;;;;;5033427;28;20030;-68
2023/08/05 09:44:55;;;;;;;1999.90;999.90;;;17.60;99.90;;;;;;5033423;28;20271;-67
2023/08/05 09:47:25;;;;;;;1999.90;999.90;;;17.50;99.90;;;;;;5032987;28;20017;-67
2023/08/05 09:49:52;;;;;;;1999.90;999.90;;;17.50;99.90;;;;;;5033498;28;20063;-76
2023/08/05 09:52:21;;;;;;;1999.90;999.90;;;17.50;99.90;;;;;;5033063;28;20065;-68
2023/08/05 09:55:00;;;;;;;1999.90;999.90;;;17.40;99.90;;;;;;5033274;28;20056;-68
2023/08/05 09:57:26;;;;;;;1999.90;999.90;;;17.60;99.90;;;;;;5032739;28;20041;-68
2023/08/05 09:59:58;;;;;;;1999.90;999.90;;;17.60;99.90;;;;;;5032979;28;20484;-68
2023/08/05 10:02:29;;;;;;;1999.90;999.90;;;17.50;99.90;;;;;;5015131;28;20021;-76
2023/08/05 10:04:56;;;;;;;1999.90;999.90;;;17.40;99.90;;;;;;5015357;28;20087;-76
2023/08/05 10:07:23;;;;;;;1999.90;999.90;;;17.40;99.90;;;;;;5033192;28;20480;-68
2023/08/05 10:09:50;;;;;;;1999.90;999.90;;;17.70;99.90;;;;;;5033069;28;20068;-68
2023/08/05 10:12:27;;;;;;;1999.90;999.90;;;17.70;99.90;;;;;;5014940;28;20032;-68
2023/08/05 10:14:56;;;;;;;1999.90;999.90;;;17.80;99.90;;;;;;5032849;28;20500;-68
2023/08/05 10:17:22;;;;;;;1999.90;999.90;;;17.90;99.90;;;;;;5032774;28;20025;-75
2023/08/05 10:19:50;;;;;;;1999.90;999.90;;;17.90;99.90;;;;;;5033143;28;20025;-68
2023/08/05 10:22:27;;;;;;;1999.90;999.90;;;17.80;99.90;;;;;;5032672;28;20021;-68
2023/08/05 10:24:57;;;;;;;1999.90;999.90;;;17.60;99.90;;;;;;5032741;28;20116;-69
2023/08/05 10:27:44;;;;;;;1999.90;999.90;;;17.60;99.90;;;;;;5032832;28;20017;-68
2023/08/05 10:30:15;;;;;;;1999.90;999.90;;;17.40;99.90;;;;;;5032770;28;20018;-69
2023/08/05 10:32:57;;;;;;;1999.90;999.90;;;17.00;99.90;;;;;;5014860;28;20492;-68
2023/08/05 10:35:29;;;;;;;1999.90;999.90;;;17.00;99.90;;;;;;5032535;28;20116;-68
2023/08/05 10:38:05;;;;;;;1999.90;999.90;;;17.00;99.90;;;;;;5014809;28;20515;-68
2023/08/05 10:40:51;;;;;;;1999.90;999.90;;;17.20;99.90;;;;;;5014847;28;20136;-69
2023/08/05 10:43:31;;;;;;;1999.90;999.90;;;17.30;99.90;;;;;;5032515;28;20467;-69
2023/08/05 10:46:17;;;;;;;1999.90;999.90;;;17.40;99.90;;;;;;5014826;28;20028;-69
2023/08/05 10:48:54;;;;;;;1999.90;999.90;;;17.40;99.90;;;;;;5032062;28;20037;-70
2023/08/05 10:51:22;;;;;;;1999.90;999.90;;;17.50;99.90;;;;;;5032633;28;20026;-69
2023/08/05 10:53:50;;;;;;;1999.90;999.90;;;17.40;99.90;;;;;;5032621;28;20493;-69
2023/08/05 10:56:16;;;;;;;1999.90;999.90;;;17.40;99.90;;;;;;5032668;28;20033;-69
2023/08/05 10:58:52;;;;;;;1999.90;999.90;;;17.40;99.90;;;;;;5032325;28;20550;-69
2023/08/05 11:01:18;;;;;;;1999.90;999.90;;;17.50;99.90;;;;;;5032422;28;20025;-68
2023/08/05 11:03:48;;;;;;;1999.90;999.90;;;17.40;99.90;;;;;;5014489;28;20026;-69
2023/08/05 11:06:24;;;;;;;1999.90;999.90;;;17.40;99.90;;;;;;5032439;28;20064;-75
2023/08/05 11:08:50;;;;;;;1999.90;999.90;;;17.30;99.90;;;;;;5035060;28;20017;-77
2023/08/05 11:11:16;;;;;;;1999.90;999.90;;;17.20;99.90;;;;;;5036142;28;20018;-68
2023/08/05 11:13:44;;;;;;;1999.90;999.90;;;17.20;99.90;;;;;;5018102;28;20104;-68
2023/08/05 11:16:13;;;;;;;1999.90;999.90;;;17.30;99.90;;;;;;5036084;28;20547;-68
2023/08/05 11:18:41;;;;;;;1999.90;999.90;;;17.30;99.90;;;;;;5036128;28;20104;-68
2023/08/05 11:21:14;;;;;;;1999.90;999.90;;;17.20;99.90;;;;;;5017748;28;20030;-68
2023/08/05 11:23:42;;;;;;;1999.90;999.90;;;17.20;99.90;;;;;;5035805;28;20067;-68
2023/08/05 11:26:09;;;;;;;1999.90;999.90;;;17.40;99.90;;;;;;5035879;28;20056;-68
2023/08/05 11:28:35;;;;;;;1999.90;999.90;;;17.40;99.90;;;;;;5018164;28;20052;-67
2023/08/05 11:31:01;;;;;;;1999.90;999.90;;;17.30;99.90;;;;;;5036142;28;20027;-68
2023/08/05 11:33:28;;;;;;;1999.90;999.90;;;17.30;99.90;;;;;;5018007;28;20108;-68
2023/08/05 11:35:54;;;;;;;1999.90;999.90;;;17.40;99.90;;;;;;5035635;28;20087;-74
2023/08/05 11:38:22;;;;;;;1999.90;999.90;;;17.50;99.90;;;;;;5035874;28;20120;-69
2023/08/05 11:40:49;;;;;;;1999.90;999.90;;;17.60;99.90;;;;;;5035891;28;20029;-69
2023/08/05 11:43:16;;;;;;;1999.90;999.90;;;17.60;99.90;;;;;;5035671;28;20500;-69
2023/08/05 11:45:42;;;;;;;1999.90;999.90;;;17.70;99.90;;;;;;5035949;28;20025;-76
2023/08/05 11:48:24;;;;;;;1999.90;999.90;;;17.70;99.90;;;;;;5035362;28;20028;-75
2023/08/05 11:51:01;;;;;;;1999.90;999.90;;;17.70;99.90;;;;;;5035457;28;20392;-68
2023/08/05 11:53:27;;;;;;;1999.90;999.90;;;18.10;99.90;;;;;;5017687;28;20057;-68
2023/08/05 11:55:53;;;;;;;1999.90;999.90;;;18.10;99.90;;;;;;5035402;28;20033;-68
2023/08/05 11:58:20;;;;;;;1999.90;999.90;;;18.40;99.90;;;;;;5035243;28;20515;-68